Kissho — JD3124 — position and weather

sailwx.info

Track history (hours):
 
Tides and Currents Weather Stations Pressure Air Temp Water Temp Dewpoint Dewpoint Depression Visibility Wind Speed Wind Dir Waves Ship Positions

Kissho

Last reported at 2014-Dec-23 02:26 UTC. Time now 2014-Dec-23 03:45 UTC.
Position N 34°41' E 135°20'.

Length 30 m.

Type: Tug. MMSI: 431002115.

Date/timePositionNaut miles runAvg speedWind from/ knotsBaromVisibWave heightAir tempDewpointWater temp
2014-Dec-23 02:26N 34°41' E 135°20'0 0.2
2014-Dec-23 01:32N 34°41' E 135°21'0 0.2
2014-Dec-23 00:32N 34°41' E 135°20'0 0.0
2014-Dec-22 23:32N 34°41' E 135°20'0 0.0
2014-Dec-22 22:26N 34°41' E 135°20'0 0.0
2014-Dec-22 21:32N 34°41' E 135°20'0 0.0
2014-Dec-22 20:32N 34°41' E 135°20'0 0.0
2014-Dec-22 19:32N 34°41' E 135°20'0 0.0
2014-Dec-22 18:32N 34°41' E 135°20'0 0.0
2014-Dec-22 17:32N 34°41' E 135°20'0 0.0
2014-Dec-22 16:26N 34°41' E 135°20'0 0.0
2014-Dec-22 15:26N 34°41' E 135°20'0 0.0
2014-Dec-22 14:32N 34°41' E 135°20'0 0.0
2014-Dec-22 13:32N 34°41' E 135°20'0 0.0
2014-Dec-22 12:32N 34°41' E 135°20'0 0.0
2014-Dec-22 11:32N 34°41' E 135°20'0 0.0
2014-Dec-22 10:20N 34°41' E 135°20'0 0.0
2014-Dec-22 09:32N 34°41' E 135°20'0 0.0
2014-Dec-22 08:32N 34°41' E 135°20'0 0.0
2014-Dec-22 07:26N 34°41' E 135°20'0 0.0
2014-Dec-22 06:32N 34°41' E 135°20'0 0.0
2014-Dec-22 05:26N 34°41' E 135°20'0 0.0
2014-Dec-22 04:32N 34°41' E 135°20'0 0.0
2014-Dec-22 03:32N 34°41' E 135°20'0 0.0
2014-Dec-22 02:32N 34°41' E 135°20'0 0.0
2014-Dec-22 01:26N 34°41' E 135°20'0 0.0
2014-Dec-22 00:32N 34°41' E 135°20'4 4.5
2014-Dec-21 23:32N 34°39' E 135°25'  
2014-Dec-19 16:34N 34°39' E 135°28'2 0.1
2014-Dec-19 03:15N 34°39' E 135°26'7 9.0
2014-Dec-19 02:31N 34°36' E 135°19'9 9.2
2014-Dec-19 01:32N 34°32' E 135°09'5 0.6
2014-Dec-18 17:32N 34°34' E 135°04'  
2014-Dec-15 15:03N 34°37' E 135°01'2 3.7
2014-Dec-15 14:33N 34°36' E 135°03'2 2.4
2014-Dec-15 13:33N 34°35' E 135°05'3 3.1
2014-Dec-15 12:30N 34°32' E 135°03'3 3.6
2014-Dec-15 11:33N 34°29' E 135°01'5 0.6
2014-Dec-15 03:32N 34°32' E 135°06'9 9.0
2014-Dec-15 02:33N 34°35' E 135°16'9 9.0
2014-Dec-15 01:32N 34°39' E 135°26'1 0.7
2014-Dec-14 23:28N 34°39' E 135°28'3 0.1
2014-Dec-13 05:29N 34°40' E 135°24'3 3.1
2014-Dec-13 04:29N 34°41' E 135°20'0 0.0
2014-Dec-13 03:17N 34°41' E 135°20'0 0.0
2014-Dec-13 02:29N 34°41' E 135°20'  
Track history (hours):
 
Tides and Currents Weather Stations Pressure Air Temp Water Temp Dewpoint Dewpoint Depression Visibility Wind Speed Wind Dir Waves Ship Positions

Kissho

Last reported at 2014-Dec-23 02:26 UTC. Time now 2014-Dec-23 03:45 UTC.
Position N 34°41' E 135°20'.

Length 30 m.

Type: Tug. MMSI: 431002115.

Date/timePositionNaut miles runAvg speedWind from/ knotsBaromVisibWave heightAir tempDewpointWater temp
2014-Dec-23 02:26N 34°41' E 135°20'0 0.2
2014-Dec-23 01:32N 34°41' E 135°21'0 0.2
2014-Dec-23 00:32N 34°41' E 135°20'0 0.0
2014-Dec-22 23:32N 34°41' E 135°20'0 0.0
2014-Dec-22 22:26N 34°41' E 135°20'0 0.0
2014-Dec-22 21:32N 34°41' E 135°20'0 0.0
2014-Dec-22 20:32N 34°41' E 135°20'0 0.0
2014-Dec-22 19:32N 34°41' E 135°20'0 0.0
2014-Dec-22 18:32N 34°41' E 135°20'0 0.0
2014-Dec-22 17:32N 34°41' E 135°20'0 0.0
2014-Dec-22 16:26N 34°41' E 135°20'0 0.0
2014-Dec-22 15:26N 34°41' E 135°20'0 0.0
2014-Dec-22 14:32N 34°41' E 135°20'0 0.0
2014-Dec-22 13:32N 34°41' E 135°20'0 0.0
2014-Dec-22 12:32N 34°41' E 135°20'0 0.0
2014-Dec-22 11:32N 34°41' E 135°20'0 0.0
2014-Dec-22 10:20N 34°41' E 135°20'0 0.0
2014-Dec-22 09:32N 34°41' E 135°20'0 0.0
2014-Dec-22 08:32N 34°41' E 135°20'0 0.0
2014-Dec-22 07:26N 34°41' E 135°20'0 0.0
2014-Dec-22 06:32N 34°41' E 135°20'0 0.0
2014-Dec-22 05:26N 34°41' E 135°20'0 0.0
2014-Dec-22 04:32N 34°41' E 135°20'0 0.0
2014-Dec-22 03:32N 34°41' E 135°20'0 0.0
2014-Dec-22 02:32N 34°41' E 135°20'0 0.0
2014-Dec-22 01:26N 34°41' E 135°20'0 0.0
2014-Dec-22 00:32N 34°41' E 135°20'4 4.5
2014-Dec-21 23:32N 34°39' E 135°25'  
2014-Dec-19 16:34N 34°39' E 135°28'2 0.1
2014-Dec-19 03:15N 34°39' E 135°26'7 9.0
2014-Dec-19 02:31N 34°36' E 135°19'9 9.2
2014-Dec-19 01:32N 34°32' E 135°09'5 0.6
2014-Dec-18 17:32N 34°34' E 135°04'  
2014-Dec-15 15:03N 34°37' E 135°01'2 3.7
2014-Dec-15 14:33N 34°36' E 135°03'2 2.4
2014-Dec-15 13:33N 34°35' E 135°05'3 3.1
2014-Dec-15 12:30N 34°32' E 135°03'3 3.6
2014-Dec-15 11:33N 34°29' E 135°01'5 0.6
2014-Dec-15 03:32N 34°32' E 135°06'9 9.0
2014-Dec-15 02:33N 34°35' E 135°16'9 9.0
2014-Dec-15 01:32N 34°39' E 135°26'1 0.7
2014-Dec-14 23:28N 34°39' E 135°28'3 0.1
2014-Dec-13 05:29N 34°40' E 135°24'3 3.1
2014-Dec-13 04:29N 34°41' E 135°20'0 0.0
2014-Dec-13 03:17N 34°41' E 135°20'0 0.0
2014-Dec-13 02:29N 34°41' E 135°20'  

Dump ship's entire track history